createdAt,value
2022-12-18T00:01:00.082Z,21.70
2022-12-18T00:03:49.839Z,21.93
2022-12-18T00:06:38.575Z,23.43
2022-12-18T00:09:39.306Z,23.60
2022-12-18T00:12:30.118Z,22.77
2022-12-18T00:15:21.651Z,23.13
2022-12-18T00:18:13.825Z,21.87
2022-12-18T00:21:07.211Z,22.70
2022-12-18T00:23:56.491Z,22.53
2022-12-18T00:26:45.704Z,23.03
2022-12-18T00:29:34.895Z,21.77
2022-12-18T00:32:25.880Z,21.37
2022-12-18T00:35:15.310Z,21.57
2022-12-18T00:38:04.538Z,21.57
2022-12-18T00:40:53.549Z,22.33
2022-12-18T00:43:42.415Z,21.30
2022-12-18T00:46:33.466Z,22.30
2022-12-18T00:49:23.984Z,21.13
2022-12-18T00:52:13.618Z,22.07
2022-12-18T00:55:06.249Z,21.53
2022-12-18T00:57:55.944Z,21.07
2022-12-18T01:00:45.939Z,21.43
2022-12-18T01:03:35.221Z,22.43
2022-12-18T01:06:26.120Z,22.77
2022-12-18T01:09:15.659Z,23.67
2022-12-18T01:12:04.806Z,21.07
2022-12-18T01:14:53.728Z,21.83
2022-12-18T01:17:43.071Z,21.70
2022-12-18T01:20:32.513Z,21.90
2022-12-18T01:23:23.288Z,21.33
2022-12-18T01:26:13.381Z,23.23
2022-12-18T01:29:02.508Z,23.80
2022-12-18T01:31:51.663Z,22.63
2022-12-18T01:34:41.174Z,21.63
2022-12-18T01:37:30.360Z,22.83
2022-12-18T01:40:21.712Z,21.50
2022-12-18T01:43:12.592Z,22.17
2022-12-18T01:46:02.163Z,22.13
2022-12-18T01:48:55.078Z,22.53
2022-12-18T01:51:44.386Z,20.83
2022-12-18T01:54:33.255Z,21.57
2022-12-18T01:57:24.480Z,19.80
2022-12-18T02:00:16.417Z,21.10
2022-12-18T02:03:05.601Z,20.00
2022-12-18T02:06:03.668Z,20.43
2022-12-18T02:09:01.936Z,20.17
2022-12-18T02:11:57.154Z,19.43
2022-12-18T02:14:56.489Z,20.60
2022-12-18T02:17:50.482Z,19.17
2022-12-18T02:20:44.503Z,20.83
2022-12-18T02:23:49.933Z,20.50
2022-12-18T02:26:45.768Z,21.07
2022-12-18T02:29:37.827Z,19.40
2022-12-18T02:32:30.352Z,20.83
2022-12-18T02:35:23.305Z,20.27
2022-12-18T02:38:13.964Z,21.63
2022-12-18T02:41:04.935Z,21.33
2022-12-18T02:43:59.886Z,21.83
2022-12-18T02:46:53.697Z,21.43
2022-12-18T02:49:52.345Z,20.97
2022-12-18T02:52:51.446Z,21.03
2022-12-18T02:55:52.012Z,19.77
2022-12-18T02:58:49.636Z,20.43
2022-12-18T03:01:45.753Z,19.57
2022-12-18T03:04:47.485Z,20.50
2022-12-18T03:07:40.959Z,18.73
2022-12-18T03:10:33.947Z,20.50
2022-12-18T03:13:31.713Z,19.43
2022-12-18T03:16:25.573Z,19.17
2022-12-18T03:19:20.975Z,19.60
2022-12-18T03:22:10.947Z,19.80
2022-12-18T03:25:02.881Z,20.80
2022-12-18T03:27:59.961Z,19.90
2022-12-18T03:30:55.319Z,17.77
2022-12-18T03:33:49.894Z,19.17
2022-12-18T03:36:40.078Z,17.87
2022-12-18T03:39:29.769Z,17.63
2022-12-18T03:42:28.183Z,16.17
2022-12-18T03:45:24.471Z,16.83
2022-12-18T03:48:19.333Z,16.87
2022-12-18T03:51:11.490Z,16.87
2022-12-18T03:54:03.888Z,16.37
2022-12-18T03:56:56.191Z,17.30
2022-12-18T03:59:46.145Z,16.27
2022-12-18T04:02:36.869Z,17.13
2022-12-18T04:05:28.998Z,18.03
2022-12-18T04:08:18.492Z,18.33
2022-12-18T04:11:09.206Z,18.50
2022-12-18T04:13:59.993Z,17.97
2022-12-18T04:16:49.410Z,20.03
2022-12-18T04:19:38.949Z,18.37
2022-12-18T04:22:28.242Z,17.93
2022-12-18T04:25:17.741Z,18.63
2022-12-18T04:28:08.716Z,17.87
2022-12-18T04:30:58.392Z,18.37
2022-12-18T04:33:47.675Z,18.50
2022-12-18T04:36:37.644Z,17.17
2022-12-18T04:39:27.228Z,19.70
2022-12-18T04:42:16.309Z,17.30
2022-12-18T04:45:08.087Z,16.63
2022-12-18T04:47:57.433Z,16.27
2022-12-18T04:50:47.110Z,16.73
2022-12-18T04:53:35.702Z,17.50
2022-12-18T04:56:24.671Z,16.00
2022-12-18T04:59:13.477Z,17.07
2022-12-18T05:02:04.122Z,15.73
2022-12-18T05:04:53.422Z,16.57
2022-12-18T05:07:42.658Z,18.57
2022-12-18T05:10:37.766Z,18.80
2022-12-18T05:13:28.066Z,18.70
2022-12-18T05:16:17.680Z,18.20
2022-12-18T05:19:08.610Z,17.23
2022-12-18T05:21:58.717Z,17.90
2022-12-18T05:24:48.521Z,17.30
2022-12-18T05:27:38.377Z,16.77
2022-12-18T08:27:29.218Z,18.80
2022-12-18T08:30:18.707Z,21.80
2022-12-18T08:33:08.965Z,21.17
2022-12-18T08:35:58.156Z,22.07
2022-12-18T08:38:47.104Z,21.70
2022-12-18T08:41:36.662Z,22.53
2022-12-18T08:44:41.996Z,23.83
2022-12-18T08:47:32.576Z,21.87
2022-12-18T08:50:21.869Z,20.63
2022-12-18T08:53:11.067Z,23.07
2022-12-18T08:56:00.127Z,23.93
2022-12-18T08:58:49.460Z,23.93
2022-12-18T09:01:40.232Z,22.00
2022-12-18T09:04:30.449Z,22.97
2022-12-18T09:07:19.932Z,21.70
2022-12-18T09:10:09.764Z,24.07
2022-12-18T09:12:59.314Z,22.07
2022-12-18T09:15:50.237Z,22.73
2022-12-18T09:18:41.454Z,24.73
2022-12-18T09:21:32.685Z,23.73
2022-12-18T09:24:26.530Z,21.53
2022-12-18T09:27:16.621Z,22.80
2022-12-18T09:30:07.739Z,21.93
2022-12-18T09:32:56.849Z,20.67
2022-12-18T09:35:48.776Z,23.10
2022-12-18T09:38:38.614Z,22.50
2022-12-18T09:41:45.955Z,20.67
2022-12-18T09:44:45.107Z,20.47
2022-12-18T09:47:40.148Z,21.20
2022-12-18T09:50:33.423Z,20.93
2022-12-18T09:53:27.814Z,22.53
2022-12-18T09:56:24.336Z,21.13
2022-12-18T09:59:25.271Z,20.00
2022-12-18T10:02:19.114Z,20.30
2022-12-18T10:05:16.281Z,19.97
2022-12-18T10:08:13.228Z,19.77
2022-12-18T10:11:24.006Z,20.20
2022-12-18T10:14:21.197Z,18.07
2022-12-18T10:17:19.639Z,20.47
2022-12-18T10:20:15.925Z,20.57
2022-12-18T10:23:13.477Z,18.27
2022-12-18T10:26:05.723Z,20.83
2022-12-18T10:29:02.149Z,20.87
2022-12-18T10:31:54.747Z,21.10
2022-12-18T10:34:43.841Z,20.70
2022-12-18T10:37:33.433Z,19.93
2022-12-18T10:40:24.085Z,19.13
2022-12-18T10:43:16.339Z,18.97
2022-12-18T10:46:16.656Z,19.33
2022-12-18T10:49:06.817Z,19.00
2022-12-18T10:52:17.301Z,19.43
2022-12-18T10:55:07.899Z,19.47
2022-12-18T10:57:57.069Z,20.07
2022-12-18T11:00:48.144Z,19.07
2022-12-18T11:03:38.772Z,20.60
2022-12-18T11:06:28.125Z,19.10
2022-12-18T11:09:23.935Z,21.80
2022-12-18T11:12:19.474Z,19.63
2022-12-18T11:15:17.268Z,21.13
2022-12-18T11:18:18.949Z,19.07
2022-12-18T11:21:11.069Z,19.10
2022-12-18T11:24:00.089Z,19.63
2022-12-18T11:26:50.365Z,18.20
2022-12-18T11:29:46.631Z,20.00
2022-12-18T11:32:39.825Z,20.77
2022-12-18T11:35:39.718Z,20.90
2022-12-18T11:38:31.271Z,21.33
2022-12-18T11:41:46.122Z,20.47
2022-12-18T11:44:45.250Z,18.27
2022-12-18T11:47:42.304Z,19.90
2022-12-18T11:50:44.007Z,20.23
2022-12-18T11:53:32.996Z,20.33
2022-12-18T11:56:35.220Z,20.30
2022-12-18T11:59:35.187Z,20.53
2022-12-18T12:02:43.912Z,22.07
2022-12-18T12:05:47.601Z,21.20
2022-12-18T12:08:47.724Z,19.87
2022-12-18T12:11:46.861Z,19.70
2022-12-18T12:14:48.192Z,20.83
2022-12-18T12:17:43.781Z,17.30
2022-12-18T12:20:47.618Z,19.77
2022-12-18T12:23:43.848Z,17.57
2022-12-18T12:26:38.825Z,17.00
2022-12-18T12:29:40.988Z,18.97
2022-12-18T12:32:44.789Z,20.47
2022-12-18T12:35:47.269Z,20.27
2022-12-18T12:38:39.947Z,19.67
2022-12-18T12:41:50.949Z,20.10
2022-12-18T12:44:45.632Z,20.57
2022-12-18T12:47:42.539Z,20.27
2022-12-18T12:50:36.373Z,21.37
2022-12-18T12:53:32.682Z,19.17
2022-12-18T12:56:23.780Z,19.67
2022-12-18T12:59:22.360Z,20.67
2022-12-18T13:02:20.557Z,20.30
2022-12-18T13:05:21.397Z,20.03
2022-12-18T13:08:13.910Z,18.70
2022-12-18T13:11:33.525Z,19.07
2022-12-18T13:14:29.275Z,17.07
2022-12-18T13:17:35.968Z,18.63
2022-12-18T13:20:34.944Z,18.20
2022-12-18T13:23:37.523Z,19.23
2022-12-18T13:26:36.046Z,17.20
2022-12-18T13:29:44.786Z,17.97
2022-12-18T13:32:33.968Z,18.27
2022-12-18T13:35:42.890Z,18.03
2022-12-18T13:38:37.777Z,20.33
2022-12-18T13:41:30.662Z,19.90
2022-12-18T13:44:35.874Z,18.50
2022-12-18T13:47:31.306Z,19.60
2022-12-18T13:50:29.761Z,16.50
2022-12-18T13:53:26.717Z,18.57
2022-12-18T13:56:19.088Z,19.03
2022-12-18T13:59:17.766Z,20.30
2022-12-18T14:02:17.906Z,20.00
2022-12-18T14:05:07.259Z,20.87
2022-12-18T14:07:57.672Z,20.70
2022-12-18T14:10:50.675Z,20.37
2022-12-18T14:13:44.715Z,21.43
2022-12-18T14:16:35.050Z,23.07
2022-12-18T14:19:27.038Z,21.37
2022-12-18T14:22:21.375Z,23.43
2022-12-18T14:25:20.923Z,18.80
2022-12-18T14:28:16.757Z,22.93
2022-12-18T14:31:05.918Z,20.20
2022-12-18T14:33:55.506Z,20.70
2022-12-18T14:36:54.929Z,21.30
2022-12-18T14:39:55.440Z,21.27
2022-12-18T14:42:45.193Z,20.93
2022-12-18T14:45:42.277Z,21.10
2022-12-18T14:48:40.381Z,19.93
2022-12-18T14:51:30.625Z,22.23
2022-12-18T14:54:23.366Z,22.13
2022-12-18T14:57:24.103Z,23.57
2022-12-18T15:00:19.425Z,23.47
2022-12-18T15:03:10.644Z,25.17
2022-12-18T15:06:18.811Z,22.47
2022-12-18T15:09:23.515Z,20.90
2022-12-18T15:12:29.587Z,28.80
2022-12-18T15:15:46.531Z,25.80
2022-12-18T15:18:38.482Z,23.10
2022-12-18T15:21:31.536Z,25.27
2022-12-18T15:24:32.299Z,25.33
2022-12-18T15:27:30.919Z,23.50
2022-12-18T15:30:27.819Z,21.93
2022-12-18T15:33:27.027Z,22.77
2022-12-18T15:36:26.113Z,21.93
2022-12-18T15:39:16.210Z,22.77
2022-12-18T15:42:23.816Z,23.00
2022-12-18T15:45:15.415Z,21.37
2022-12-18T15:48:05.066Z,22.30
2022-12-18T15:50:57.777Z,22.93
2022-12-18T15:53:47.824Z,20.37
2022-12-18T15:56:54.531Z,20.47
2022-12-18T15:59:46.068Z,23.93
2022-12-18T16:02:36.011Z,22.00
2022-12-18T16:05:26.791Z,22.33
2022-12-18T16:08:15.944Z,20.93
2022-12-18T16:11:06.012Z,22.80
2022-12-18T16:13:55.276Z,22.47
2022-12-18T16:16:46.268Z,20.93
2022-12-18T16:19:35.621Z,21.23
2022-12-18T16:22:26.398Z,20.40
2022-12-18T16:25:25.280Z,21.30
2022-12-18T16:28:14.686Z,21.67
2022-12-18T16:31:04.253Z,22.07
2022-12-18T16:34:12.910Z,21.93
2022-12-18T16:37:05.736Z,23.37
2022-12-18T16:39:55.332Z,21.80
2022-12-18T16:42:45.882Z,23.13
2022-12-18T16:45:35.022Z,21.53
2022-12-18T16:48:24.848Z,21.03
2022-12-18T16:51:14.917Z,21.73
2022-12-18T16:54:09.739Z,23.07
2022-12-18T16:57:01.605Z,21.53
2022-12-18T16:59:51.133Z,21.43
2022-12-18T17:02:41.030Z,22.37
2022-12-18T17:05:30.356Z,22.93
2022-12-18T17:08:21.223Z,22.33
2022-12-18T17:11:10.663Z,20.87
2022-12-18T17:14:00.177Z,22.00
2022-12-18T17:17:07.257Z,22.20
2022-12-18T17:20:00.104Z,22.27
2022-12-18T17:22:50.355Z,22.03
2022-12-18T17:25:43.178Z,23.33
2022-12-18T17:28:33.467Z,22.03
2022-12-18T17:31:25.050Z,22.20
2022-12-18T17:34:15.488Z,22.40
2022-12-18T17:37:04.552Z,22.37
2022-12-18T17:39:54.620Z,22.90
2022-12-18T17:42:45.355Z,23.63
2022-12-18T17:45:38.529Z,22.00
2022-12-18T17:48:27.917Z,24.23
2022-12-18T17:51:18.205Z,23.80
2022-12-18T17:54:07.800Z,21.27
2022-12-18T17:56:57.633Z,22.40
2022-12-18T17:59:48.269Z,22.47
2022-12-18T18:02:37.791Z,21.83
2022-12-18T18:05:27.699Z,22.43
2022-12-18T18:08:16.769Z,23.50
2022-12-18T18:11:24.980Z,23.17
2022-12-18T18:14:16.726Z,22.27
2022-12-18T18:17:07.692Z,24.30
2022-12-18T18:19:57.093Z,24.10
2022-12-18T18:22:46.413Z,24.10
2022-12-18T18:25:38.098Z,24.57
2022-12-18T18:28:27.190Z,25.23
2022-12-18T18:31:16.363Z,26.23
2022-12-18T18:34:08.146Z,25.27
2022-12-18T18:36:57.249Z,23.27
2022-12-18T18:39:46.456Z,25.73
2022-12-18T18:42:36.210Z,22.90
2022-12-18T18:45:25.836Z,25.57
2022-12-18T18:48:16.336Z,23.27
2022-12-18T18:51:09.007Z,23.77
2022-12-18T18:53:59.106Z,23.47
2022-12-18T18:59:59.916Z,25.07
2022-12-18T19:02:49.120Z,23.73
2022-12-18T19:05:40.757Z,22.87
2022-12-18T19:08:37.031Z,24.70
2022-12-18T19:11:44.687Z,26.63
2022-12-18T19:14:34.266Z,24.87
2022-12-18T19:17:29.520Z,25.87
2022-12-18T19:20:19.024Z,24.80
2022-12-18T19:23:08.773Z,26.70
2022-12-18T19:26:17.032Z,27.57
2022-12-18T19:29:12.674Z,33.47
2022-12-18T19:32:02.494Z,26.73
2022-12-18T19:34:51.510Z,26.87
2022-12-18T19:37:40.619Z,26.90
2022-12-18T19:40:30.365Z,27.23
2022-12-18T19:43:21.631Z,26.97
2022-12-18T19:46:14.370Z,27.77
2022-12-18T19:49:03.846Z,28.60
2022-12-18T19:51:53.484Z,29.57
2022-12-18T19:54:42.362Z,30.40
2022-12-18T19:57:33.325Z,28.90
2022-12-18T20:00:23.992Z,27.77
2022-12-18T20:03:23.466Z,27.23
2022-12-18T20:06:21.906Z,25.67
2022-12-18T20:09:12.481Z,25.67
2022-12-18T20:12:02.003Z,26.47
2022-12-18T20:14:51.411Z,23.37
2022-12-18T20:17:41.594Z,25.90
2022-12-18T20:20:30.378Z,25.27
2022-12-18T20:23:20.106Z,25.47
2022-12-18T20:26:09.441Z,25.90
2022-12-18T20:29:03.211Z,25.37
2022-12-18T20:31:52.672Z,28.10
2022-12-18T20:34:44.234Z,26.03
2022-12-18T20:37:41.928Z,27.97
2022-12-18T20:40:39.489Z,28.20
2022-12-18T20:43:28.575Z,27.70
2022-12-18T20:46:19.808Z,28.13
2022-12-18T20:49:09.260Z,26.10
2022-12-18T20:51:59.893Z,25.67
2022-12-18T20:54:54.233Z,27.40
2022-12-18T20:57:46.521Z,26.87
2022-12-18T21:00:39.177Z,28.07
2022-12-18T21:03:38.716Z,27.17
2022-12-18T21:06:30.129Z,27.47
2022-12-18T21:09:20.757Z,27.57
2022-12-18T21:12:49.640Z,28.23
